Main page


Airports :

Beirut, Lebanon

Beirut Air Base

latitude: 33-49N, longitude: 035-29E, elevation: 29 m

Current weather observation

The report was made 25 minutes ago, at 23:00 UTC
Wind 4 kt from the East/Southeast
Temperature 22°C
Humidity 33%
Pressure 1011 hPa
Visibility 10 km or more

METAR: OLBA 222300Z 12004KT 9999 22/05 Q1011 NOSIG

Time: 01:25 (23:25 UTC)


The report was made 7 hours and 25 minutes ago, at 16:00 UTC
Forecast valid from 22 at 18 UTC to 23 at 24 UTC
Wind 5 kt from the East/Southeast
Visibility: 8000 m
Probability 40% :
from 22 at 18 UTC to 23 at 24 UTC
Visibility: 5000 m
from 23 at 06 UTC to 23 at 08 UTC
Wind 15 kt from the South
from 23 at 20 UTC to 23 at 22 UTC
Wind 8 kt from the South/Southeast
Few clouds at a height of 3000 ft
Scattered clouds at a height of 12000 ft

TAF: OLBA 221600Z 2218/2324 12005KT 8000 NSC PROB40 TEMPO 2218/2324 5000 HZ BECMG 2306/2308 18015KT BECMG 2320/2322 15008KT FEW030 SCT120

Weather observations and forecasts of more than 4000 airports (METAR and TAF reports).

The available stations are represented by yellow and red dots on the map.

Hover mouse over dot to see the name of the station.

Then click to see weather observations and forecasts.

To change the map : click on the green buttons with a black cross to zoom in, on the green button with a dash to zoom out, or on the green arrows for adjacent maps.